Time;durP1;ratioP1;P1;durP2;ratioP2;P2;SDS_P1;SDS_P2;PMS_P1;PMS_P2;Temp;Humidity;BMP_temperature;BMP_pressure;BME280_temperature;BME280_humidity;BME280_pressure;Samples;Min_cycle;Max_cycle;Signal;HPM_P1;HPM_P2
2022/08/10 00:00:21;;;;;;;0.60;0.20;;;17.50;99.90;;;;;;5068475;28;20035;-80
2022/08/10 00:02:53;;;;;;;0.95;0.20;;;17.50;99.90;;;;;;5086134;28;20073;-80
2022/08/10 00:05:19;;;;;;;0.60;0.20;;;17.50;99.90;;;;;;5071673;28;20081;-83
2022/08/10 00:07:46;;;;;;;0.30;0.20;;;17.50;99.90;;;;;;5089283;28;20040;-82
2022/08/10 00:10:13;;;;;;;0.50;0.20;;;17.50;99.90;;;;;;5086872;28;20027;-82
2022/08/10 00:12:40;;;;;;;0.40;0.20;;;17.40;99.90;;;;;;5085744;28;20174;-82
2022/08/10 00:15:07;;;;;;;0.50;0.30;;;17.30;99.90;;;;;;5085417;28;20035;-81
2022/08/10 00:17:33;;;;;;;0.45;0.20;;;17.30;99.90;;;;;;5087677;28;20035;-79
2022/08/10 00:19:59;;;;;;;1.10;0.13;;;17.30;99.90;;;;;;5069271;28;20028;-85
2022/08/10 00:22:24;;;;;;;0.38;0.10;;;17.20;99.90;;;;;;5088752;28;20035;-82
2022/08/10 00:24:50;;;;;;;0.95;0.20;;;17.10;99.90;;;;;;5083679;28;20054;-81
2022/08/10 00:27:16;;;;;;;1.17;0.20;;;17.10;99.90;;;;;;5071357;28;20036;-81
2022/08/10 00:29:41;;;;;;;0.50;0.20;;;17.10;99.90;;;;;;5070053;28;20115;-81
2022/08/10 00:32:07;;;;;;;0.93;0.30;;;17.10;99.90;;;;;;5080403;28;20032;-80
2022/08/10 00:34:33;;;;;;;0.73;0.40;;;17.00;99.90;;;;;;5078329;28;20036;-81
2022/08/10 00:37:00;;;;;;;0.93;0.28;;;16.90;99.90;;;;;;5088176;28;20073;-83
2022/08/10 00:39:26;;;;;;;0.60;0.22;;;16.90;99.90;;;;;;5071287;28;20114;-82
2022/08/10 00:41:53;;;;;;;0.50;0.22;;;16.90;99.90;;;;;;5072069;28;20095;-81
2022/08/10 00:44:19;;;;;;;1.00;0.30;;;16.80;99.90;;;;;;5068942;28;20032;-81
2022/08/10 00:46:45;;;;;;;0.57;0.28;;;16.80;99.90;;;;;;5088225;28;20039;-82
2022/08/10 00:49:11;;;;;;;0.60;0.30;;;16.70;99.90;;;;;;5085389;28;20404;-79
2022/08/10 00:51:37;;;;;;;1.73;0.30;;;16.70;99.90;;;;;;5087902;28;20024;-80
2022/08/10 00:54:03;;;;;;;1.33;0.50;;;16.60;99.90;;;;;;5086021;28;20584;-81
2022/08/10 00:56:28;;;;;;;1.10;0.50;;;16.60;99.90;;;;;;5072349;28;20032;-80
2022/08/10 00:58:54;;;;;;;0.82;0.40;;;16.50;99.90;;;;;;5088856;28;20035;-81
2022/08/10 01:01:20;;;;;;;1.10;0.60;;;16.50;99.90;;;;;;5087726;28;20024;-80
2022/08/10 01:03:45;;;;;;;1.63;0.68;;;16.50;99.90;;;;;;5071569;28;20047;-81
2022/08/10 01:06:20;;;;;;;1.40;0.60;;;16.50;99.90;;;;;;5088901;28;20032;-81
2022/08/10 01:09:01;;;;;;;2.47;0.57;;;16.50;99.90;;;;;;5093330;28;20113;-81
2022/08/10 01:11:32;;;;;;;1.25;0.50;;;16.40;99.90;;;;;;5087259;28;20031;-81
2022/08/10 01:14:33;;;;;;;0.93;0.45;;;16.40;99.90;;;;;;5081243;28;20036;-81
2022/08/10 01:17:10;;;;;;;1.92;0.50;;;16.30;99.90;;;;;;5062156;28;20036;-81
2022/08/10 01:20:04;;;;;;;1.30;0.50;;;16.30;99.90;;;;;;5083912;28;20040;-81
2022/08/10 01:22:39;;;;;;;2.42;0.50;;;16.30;99.90;;;;;;5092788;28;20031;-81
2022/08/10 01:25:39;;;;;;;1.33;0.50;;;16.20;99.90;;;;;;5086921;28;20080;-80
2022/08/10 01:28:29;;;;;;;3.33;0.50;;;16.20;99.90;;;;;;5084190;28;20192;-79
2022/08/10 01:30:59;;;;;;;0.90;0.50;;;16.10;99.90;;;;;;5064007;28;20020;-81
2022/08/10 01:33:28;;;;;;;;;;;16.10;99.90;;;;;;5069836;28;20114;-80
2022/08/10 01:36:01;;;;;;;1.45;0.40;;;16.10;99.90;;;;;;5066511;28;19980;-81
2022/08/10 01:38:30;;;;;;;0.80;0.40;;;16.10;99.90;;;;;;5068993;28;20051;-81
2022/08/10 01:41:03;;;;;;;1.00;0.50;;;16.10;99.90;;;;;;5068184;28;20032;-81
2022/08/10 01:43:32;;;;;;;1.08;0.50;;;16.00;99.90;;;;;;5070813;28;20564;-81
2022/08/10 01:46:00;;;;;;;2.83;0.50;;;16.10;99.90;;;;;;5070211;28;20074;-81
2022/08/10 01:48:37;;;;;;;1.00;0.40;;;16.00;99.90;;;;;;5070401;28;20506;-81
2022/08/10 01:51:14;;;;;;;0.52;0.30;;;16.00;99.90;;;;;;5081570;28;20028;-81
2022/08/10 01:53:59;;;;;;;0.80;0.30;;;16.00;99.90;;;;;;5087940;28;20594;-81
2022/08/10 01:56:27;;;;;;;0.93;0.50;;;15.90;99.90;;;;;;5097482;28;20042;-81
2022/08/10 01:58:57;;;;;;;1.00;0.50;;;16.00;99.90;;;;;;5067543;28;20088;-81
2022/08/10 02:01:28;;;;;;;1.13;0.50;;;16.00;99.90;;;;;;5069671;28;20024;-80
2022/08/10 02:03:58;;;;;;;1.20;0.60;;;15.90;99.90;;;;;;5082134;28;20028;-81
2022/08/10 02:06:29;;;;;;;1.33;0.50;;;15.90;99.90;;;;;;5082747;28;20152;-81
2022/08/10 02:08:57;;;;;;;0.70;0.40;;;15.80;99.90;;;;;;5070897;28;20039;-81
2022/08/10 02:11:27;;;;;;;1.45;0.50;;;15.90;99.90;;;;;;5092200;28;20035;-82
2022/08/10 02:13:55;;;;;;;0.63;0.30;;;15.80;99.90;;;;;;5070293;28;20040;-82
2022/08/10 02:16:21;;;;;;;0.50;0.35;;;15.80;99.90;;;;;;5070073;28;20058;-81
2022/08/10 02:18:49;;;;;;;0.90;0.50;;;15.70;99.90;;;;;;5068987;28;20024;-81
2022/08/10 02:21:15;;;;;;;0.80;0.40;;;15.70;99.90;;;;;;5068487;28;20031;-79
2022/08/10 02:23:42;;;;;;;1.17;0.30;;;15.70;99.90;;;;;;5067077;28;20536;-79
2022/08/10 02:26:09;;;;;;;0.70;0.30;;;15.70;99.90;;;;;;5083528;28;20039;-81
2022/08/10 02:28:38;;;;;;;0.40;0.20;;;15.70;99.90;;;;;;5066452;28;20396;-82
2022/08/10 02:31:17;;;;;;;0.90;0.47;;;15.60;99.90;;;;;;5069675;28;20024;-81
2022/08/10 02:33:47;;;;;;;0.90;0.30;;;15.60;99.90;;;;;;5065950;28;20451;-81
2022/08/10 02:36:13;;;;;;;0.80;0.40;;;15.50;99.90;;;;;;5092680;28;20116;-80
2022/08/10 02:38:44;;;;;;;1.33;0.70;;;15.50;99.90;;;;;;5070406;28;20177;-81
2022/08/10 02:41:30;;;;;;;1.35;0.60;;;15.50;99.90;;;;;;5083287;28;20027;-81
2022/08/10 02:44:03;;;;;;;1.17;0.50;;;15.50;99.90;;;;;;5085157;28;20031;-80
2022/08/10 02:46:40;;;;;;;0.90;0.40;;;15.40;99.90;;;;;;5078862;28;20028;-81
2022/08/10 02:49:11;;;;;;;0.80;0.40;;;15.40;99.90;;;;;;5085500;28;20031;-81
2022/08/10 02:51:57;;;;;;;0.93;0.40;;;15.30;99.90;;;;;;5091743;28;20432;-82
2022/08/10 02:54:27;;;;;;;1.30;0.50;;;15.30;99.90;;;;;;5068750;28;20024;-82
2022/08/10 02:57:07;;;;;;;0.88;0.47;;;15.20;99.90;;;;;;5083993;28;20376;-81
2022/08/10 02:59:45;;;;;;;1.20;0.55;;;15.10;99.90;;;;;;5064131;28;20036;-82
2022/08/10 03:02:21;;;;;;;1.45;0.55;;;15.20;99.90;;;;;;5080333;28;20028;-79
2022/08/10 03:04:52;;;;;;;1.17;0.65;;;15.20;99.90;;;;;;5065583;28;20127;-80
2022/08/10 03:07:21;;;;;;;1.58;0.82;;;15.20;99.90;;;;;;5085561;28;20123;-81
2022/08/10 03:09:48;;;;;;;2.15;0.63;;;15.10;99.90;;;;;;5070297;28;20086;-80
2022/08/10 03:12:16;;;;;;;1.70;0.70;;;15.10;99.90;;;;;;5086517;28;20039;-80
2022/08/10 03:14:43;;;;;;;1.40;0.70;;;15.10;99.90;;;;;;5070091;28;20524;-80
2022/08/10 03:17:11;;;;;;;2.00;0.70;;;15.20;99.90;;;;;;5081779;28;20388;-82
2022/08/10 03:19:39;;;;;;;1.95;0.88;;;15.10;99.90;;;;;;5069073;28;20028;-80
2022/08/10 03:22:05;;;;;;;1.35;0.65;;;15.10;99.90;;;;;;5084609;28;20028;-80
2022/08/10 03:24:33;;;;;;;1.52;0.68;;;15.00;99.90;;;;;;5065354;28;20021;-81
2022/08/10 03:27:00;;;;;;;2.17;1.10;;;15.10;99.90;;;;;;5085988;28;20047;-81
2022/08/10 03:29:27;;;;;;;2.38;1.15;;;15.00;99.90;;;;;;5069607;28;20115;-82
2022/08/10 03:31:54;;;;;;;2.78;1.48;;;15.00;99.90;;;;;;5083889;28;20033;-80
2022/08/10 03:34:21;;;;;;;2.08;1.05;;;15.00;99.90;;;;;;5069466;28;20025;-80
2022/08/10 03:36:47;;;;;;;2.50;1.60;;;15.00;99.90;;;;;;5082650;28;20024;-80
2022/08/10 03:39:13;;;;;;;2.67;1.48;;;14.90;99.90;;;;;;5086566;28;20048;-80
2022/08/10 03:41:43;;;;;;;3.05;2.17;;;14.90;99.90;;;;;;5084498;28;20721;-80
2022/08/10 03:44:11;;;;;;;2.90;1.75;;;14.80;99.90;;;;;;5067020;28;20043;-83
2022/08/10 03:46:42;;;;;;;2.42;1.42;;;14.80;99.90;;;;;;5068888;28;20028;-85
2022/08/10 03:49:09;;;;;;;2.83;1.45;;;14.70;99.90;;;;;;5086086;28;20039;-81
2022/08/10 03:51:36;;;;;;;3.60;2.45;;;14.70;99.90;;;;;;5068428;28;20424;-83
2022/08/10 03:54:03;;;;;;;3.50;1.88;;;14.70;99.90;;;;;;5068678;28;20178;-81
2022/08/10 03:56:29;;;;;;;3.15;1.67;;;14.70;99.90;;;;;;5082716;28;20053;-83
2022/08/10 03:58:55;;;;;;;4.80;2.97;;;14.70;99.90;;;;;;5066261;28;20049;-82
2022/08/10 04:01:22;;;;;;;5.20;3.58;;;14.60;99.90;;;;;;5085342;28;20020;-81
2022/08/10 04:03:47;;;;;;;4.15;2.63;;;14.70;99.90;;;;;;5086289;28;20047;-81
2022/08/10 04:06:13;;;;;;;4.10;2.30;;;14.60;99.90;;;;;;5089691;28;20024;-81
2022/08/10 04:08:41;;;;;;;5.03;2.50;;;14.60;99.90;;;;;;5089044;28;20040;-80
2022/08/10 04:11:08;;;;;;;3.13;1.63;;;14.60;99.90;;;;;;5098998;28;20043;-83
2022/08/10 04:13:34;;;;;;;3.47;2.20;;;14.70;99.90;;;;;;5090866;28;20051;-80
2022/08/10 04:16:00;;;;;;;4.07;2.65;;;14.60;99.90;;;;;;5090168;28;20062;-81
2022/08/10 04:18:25;;;;;;;3.38;1.58;;;14.70;99.90;;;;;;5076164;28;20027;-81
2022/08/10 04:21:01;;;;;;;4.25;2.80;;;14.60;99.90;;;;;;5086140;28;20437;-84
2022/08/10 04:23:31;;;;;;;4.13;2.67;;;14.50;99.90;;;;;;5086484;28;20032;-81
2022/08/10 04:25:57;;;;;;;3.58;2.22;;;14.50;99.90;;;;;;5086744;28;20020;-82
2022/08/10 04:28:25;;;;;;;3.47;1.50;;;14.50;99.90;;;;;;5089889;28;20062;-81
2022/08/10 04:30:52;;;;;;;3.58;1.88;;;14.50;99.90;;;;;;5085356;28;20501;-82
2022/08/10 04:33:21;;;;;;;4.50;1.98;;;14.60;99.90;;;;;;5093311;28;20036;-82
2022/08/10 04:35:48;;;;;;;4.13;2.10;;;14.50;99.90;;;;;;5068759;28;20020;-81
2022/08/10 04:38:15;;;;;;;3.70;2.70;;;14.50;99.90;;;;;;5070869;28;20028;-80
2022/08/10 04:40:41;;;;;;;5.78;2.65;;;14.50;99.90;;;;;;5088624;28;20038;-82
2022/08/10 04:43:07;;;;;;;4.28;3.28;;;14.50;99.90;;;;;;5071331;28;20067;-81
2022/08/10 04:45:33;;;;;;;4.43;2.83;;;14.50;99.90;;;;;;5088436;28;20048;-80
2022/08/10 04:47:59;;;;;;;5.15;2.60;;;14.60;99.90;;;;;;5088836;28;20036;-81
2022/08/10 04:50:24;;;;;;;5.03;2.47;;;14.60;99.90;;;;;;5088350;28;20028;-81
2022/08/10 04:52:51;;;;;;;5.07;2.08;;;14.60;99.90;;;;;;5071425;28;20051;-81
2022/08/10 04:55:16;;;;;;;4.35;2.17;;;14.50;99.90;;;;;;5082277;28;20111;-81
2022/08/10 04:57:42;;;;;;;5.30;2.80;;;14.50;99.90;;;;;;5069118;28;20588;-84
2022/08/10 05:00:08;;;;;;;5.35;2.70;;;14.50;99.90;;;;;;5085823;28;20024;-83
2022/08/10 05:02:34;;;;;;;3.72;2.78;;;14.60;99.90;;;;;;5084595;28;20122;-80
2022/08/10 05:05:00;;;;;;;4.03;2.65;;;14.50;99.90;;;;;;5068091;28;20115;-82
2022/08/10 05:07:25;;;;;;;4.35;2.20;;;14.60;99.90;;;;;;5087349;28;20070;-81
2022/08/10 05:09:53;;;;;;;4.25;2.00;;;14.60;99.90;;;;;;5066872;28;20029;-81
2022/08/10 05:12:19;;;;;;;9.00;3.92;;;14.60;99.90;;;;;;5068657;28;20462;-85
2022/08/10 05:14:44;;;;;;;6.38;2.33;;;14.60;99.90;;;;;;5082211;28;20069;-83
2022/08/10 05:17:10;;;;;;;5.72;3.20;;;14.70;99.90;;;;;;5070899;28;20044;-81
2022/08/10 05:19:36;;;;;;;3.63;2.00;;;14.80;99.90;;;;;;5068214;28;20024;-81
2022/08/10 05:22:03;;;;;;;4.63;2.63;;;14.80;99.90;;;;;;5070912;28;20472;-81
2022/08/10 05:24:29;;;;;;;4.82;2.58;;;14.90;99.90;;;;;;5083804;28;20563;-80
2022/08/10 05:26:55;;;;;;;2.67;1.90;;;14.90;99.90;;;;;;5084256;28;20036;-81
2022/08/10 05:29:21;;;;;;;6.07;3.10;;;15.00;99.90;;;;;;5083838;28;20451;-81
2022/08/10 05:31:48;;;;;;;4.72;2.63;;;15.00;99.90;;;;;;5086072;28;20020;-80
2022/08/10 05:34:13;;;;;;;3.60;2.13;;;15.00;99.90;;;;;;5086969;28;20401;-80
2022/08/10 05:36:40;;;;;;;3.53;1.67;;;15.00;99.90;;;;;;5069988;28;20047;-81
2022/08/10 05:39:06;;;;;;;3.70;2.05;;;15.10;99.90;;;;;;5065425;28;20039;-81
2022/08/10 05:41:33;;;;;;;3.50;1.90;;;15.20;99.90;;;;;;5087905;28;20632;-82
2022/08/10 05:43:58;;;;;;;4.57;2.72;;;15.30;99.90;;;;;;5086623;28;20028;-81
2022/08/10 05:46:24;;;;;;;4.28;1.83;;;15.30;99.90;;;;;;5066186;28;20029;-81
2022/08/10 05:48:50;;;;;;;3.70;2.70;;;15.40;99.90;;;;;;5087222;28;20108;-81
2022/08/10 05:51:17;;;;;;;4.28;3.03;;;15.40;99.90;;;;;;5082812;28;20060;-82
2022/08/10 05:53:43;;;;;;;5.70;3.22;;;15.50;99.90;;;;;;5081561;28;20103;-84
2022/08/10 05:56:09;;;;;;;3.22;2.20;;;15.40;99.90;;;;;;5063974;28;20042;-80
2022/08/10 05:58:35;;;;;;;6.22;2.60;;;15.50;99.90;;;;;;5068129;28;20028;-79
2022/08/10 06:01:06;;;;;;;6.03;3.08;;;15.60;99.90;;;;;;5083529;28;20028;-81
2022/08/10 06:03:52;;;;;;;3.05;1.55;;;15.70;99.90;;;;;;5086138;28;20055;-81
2022/08/10 06:06:19;;;;;;;4.82;2.08;;;15.90;99.90;;;;;;5079837;28;20123;-80
2022/08/10 06:08:48;;;;;;;3.30;1.40;;;16.00;99.90;;;;;;5081272;28;20074;-80
2022/08/10 06:11:15;;;;;;;3.13;2.15;;;16.10;99.90;;;;;;5085543;28;20381;-81
2022/08/10 06:16:31;;;;;;;3.90;2.85;;;16.30;99.90;;;;;;5082596;28;20104;-81
2022/08/10 06:18:58;;;;;;;3.97;3.05;;;16.30;99.90;;;;;;5067730;28;20024;-83
2022/08/10 06:21:24;;;;;;;4.95;3.42;;;16.50;99.90;;;;;;5085595;28;20035;-80
2022/08/10 06:23:52;;;;;;;4.45;2.58;;;16.50;99.90;;;;;;5067299;28;20025;-82
2022/08/10 06:26:18;;;;;;;3.80;2.35;;;16.70;99.90;;;;;;5083084;28;20093;-80
2022/08/10 06:28:51;;;;;;;5.70;4.22;;;16.90;99.90;;;;;;5086060;28;20028;-82
2022/08/10 06:31:18;;;;;;;4.78;2.53;;;17.10;99.90;;;;;;5080847;28;20016;-83
2022/08/10 06:33:45;;;;;;;3.83;3.15;;;17.30;99.90;;;;;;5064415;28;20421;-81
2022/08/10 06:36:12;;;;;;;5.72;3.65;;;17.50;99.90;;;;;;5063416;28;20020;-83
2022/08/10 06:38:39;;;;;;;4.65;2.97;;;17.70;99.90;;;;;;5067514;28;20594;-82
2022/08/10 06:41:13;;;;;;;4.72;3.13;;;17.80;99.90;;;;;;5086496;28;20056;-84
2022/08/10 06:43:44;;;;;;;3.28;1.95;;;18.00;99.90;;;;;;5070503;28;20048;-86
2022/08/10 06:46:15;;;;;;;2.88;1.58;;;18.20;99.90;;;;;;5081959;28;20028;-83
2022/08/10 06:48:50;;;;;;;4.65;2.88;;;18.50;99.90;;;;;;5084624;28;20491;-84
2022/08/10 06:51:26;;;;;;;5.45;3.38;;;18.50;99.90;;;;;;5092762;28;20028;-82
2022/08/10 06:53:56;;;;;;;3.35;2.50;;;18.70;99.90;;;;;;5096593;28;20028;-82
2022/08/10 06:56:28;;;;;;;4.85;3.25;;;18.70;99.90;;;;;;5084451;28;20419;-83
2022/08/10 06:58:59;;;;;;;4.38;2.67;;;18.80;99.90;;;;;;5065849;28;20036;-83
2022/08/10 07:01:30;;;;;;;3.17;1.92;;;19.10;99.90;;;;;;5083410;28;20467;-83
2022/08/10 07:04:05;;;;;;;5.53;2.85;;;19.40;99.90;;;;;;5075800;28;20408;-82
2022/08/10 07:06:35;;;;;;;3.47;2.17;;;19.30;99.90;;;;;;5067040;28;20035;-83
2022/08/10 07:09:02;;;;;;;3.90;3.00;;;19.60;99.90;;;;;;5067604;28;20500;-83
2022/08/10 07:11:30;;;;;;;5.47;1.90;;;19.70;99.90;;;;;;5083536;28;20062;-82
2022/08/10 07:13:57;;;;;;;3.72;1.80;;;19.90;99.90;;;;;;5077734;28;20085;-82
2022/08/10 07:16:27;;;;;;;4.03;2.00;;;20.00;99.90;;;;;;5086247;28;20486;-83
2022/08/10 07:18:57;;;;;;;;;;;20.30;99.90;;;;;;5064811;28;20108;-85
2022/08/10 07:21:25;;;;;;;2.85;1.38;;;20.50;99.90;;;;;;5067242;28;19934;-83
2022/08/10 07:23:52;;;;;;;3.08;2.08;;;20.40;99.90;;;;;;5096964;28;20036;-84
2022/08/10 07:26:18;;;;;;;2.72;1.85;;;20.50;99.90;;;;;;5069116;28;20028;-83
2022/08/10 07:28:45;;;;;;;2.72;1.67;;;20.70;99.90;;;;;;5082783;28;20044;-83
2022/08/10 07:31:12;;;;;;;3.55;1.80;;;21.00;99.90;;;;;;5084774;28;20128;-82
2022/08/10 07:33:41;;;;;;;2.35;1.55;;;21.20;99.90;;;;;;5084065;28;20396;-83
2022/08/10 07:36:09;;;;;;;3.13;1.40;;;21.30;99.90;;;;;;5084746;28;20043;-83
2022/08/10 07:38:37;;;;;;;2.75;1.25;;;21.60;99.90;;;;;;5074010;28;20408;-83
2022/08/10 07:41:06;;;;;;;2.90;1.92;;;21.70;99.90;;;;;;5043476;28;20131;-83
2022/08/10 07:43:35;;;;;;;2.30;1.10;;;21.70;99.90;;;;;;5040238;28;20029;-83
2022/08/10 07:46:02;;;;;;;;;;;21.60;99.90;;;;;;5027320;28;20033;-83
2022/08/10 07:48:32;;;;;;;3.60;1.25;;;21.80;99.90;;;;;;5043535;28;19956;-83
2022/08/10 07:51:00;;;;;;;2.30;1.13;;;22.10;99.90;;;;;;5043014;28;20477;-83
2022/08/10 07:53:37;;;;;;;2.15;1.10;;;22.30;99.90;;;;;;5039698;28;20397;-83
2022/08/10 07:56:05;;;;;;;2.10;0.65;;;22.50;99.90;;;;;;5028605;28;20021;-83
2022/08/10 07:58:37;;;;;;;1.98;0.80;;;22.70;99.90;;;;;;5045087;28;20060;-84
2022/08/10 08:01:03;;;;;;;2.25;0.90;;;22.80;99.90;;;;;;5045835;28;20111;-83
2022/08/10 08:03:31;;;;;;;2.10;0.88;;;23.00;99.90;;;;;;5044191;28;20170;-82
2022/08/10 08:05:59;;;;;;;1.30;0.60;;;23.20;99.90;;;;;;5042322;28;20821;-83
2022/08/10 08:08:27;;;;;;;1.40;0.40;;;23.10;99.90;;;;;;5040063;28;20440;-83
2022/08/10 08:10:54;;;;;;;1.83;0.90;;;23.40;99.90;;;;;;5042091;28;20165;-83
2022/08/10 08:13:22;;;;;;;1.77;1.08;;;23.20;99.90;;;;;;5027901;28;20027;-83
2022/08/10 08:15:50;;;;;;;1.73;0.60;;;23.10;99.90;;;;;;5022015;28;20470;-84
2022/08/10 08:18:18;;;;;;;1.27;0.60;;;23.40;99.90;;;;;;5038866;28;20041;-83
2022/08/10 08:20:44;;;;;;;0.85;0.40;;;23.80;99.90;;;;;;5052945;28;20148;-83
2022/08/10 08:23:12;;;;;;;2.00;0.77;;;23.90;99.90;;;;;;5044022;28;20035;-84
2022/08/10 08:25:39;;;;;;;0.95;0.40;;;24.00;99.90;;;;;;5044128;28;20028;-83
2022/08/10 08:28:08;;;;;;;2.47;0.40;;;24.10;99.90;;;;;;5035425;28;20045;-83
2022/08/10 08:30:35;;;;;;;1.60;0.73;;;24.40;99.90;;;;;;5037942;28;20036;-83
2022/08/10 08:33:02;;;;;;;1.42;0.50;;;24.20;99.90;;;;;;5036602;28;20028;-83
2022/08/10 08:35:29;;;;;;;1.27;0.50;;;24.30;99.90;;;;;;5037658;28;21977;-84
2022/08/10 08:37:55;;;;;;;2.30;0.40;;;24.60;99.90;;;;;;5042314;28;20617;-83
2022/08/10 08:40:32;;;;;;;2.78;0.75;;;24.90;99.90;;;;;;5035249;28;20088;-84
2022/08/10 08:43:16;;;;;;;1.48;0.57;;;24.20;99.90;;;;;;5043519;28;20458;-83
2022/08/10 08:45:51;;;;;;;1.48;0.35;;;24.70;99.90;;;;;;5027765;28;20041;-83
2022/08/10 08:48:43;;;;;;;0.70;0.35;;;25.10;99.90;;;;;;5041637;28;20041;-84
2022/08/10 08:51:12;;;;;;;1.20;0.30;;;25.30;99.90;;;;;;5026031;28;20163;-83
2022/08/10 08:53:59;;;;;;;1.85;0.30;;;25.80;99.90;;;;;;5031112;28;20110;-84
2022/08/10 08:56:28;;;;;;;1.55;0.50;;;25.60;99.90;;;;;;5046927;28;20079;-84
2022/08/10 08:59:14;;;;;;;2.00;0.40;;;25.70;99.90;;;;;;5044222;28;20354;-83
2022/08/10 09:01:57;;;;;;;0.98;0.30;;;25.60;99.90;;;;;;5044594;28;20060;-84
2022/08/10 09:04:34;;;;;;;1.10;0.30;;;25.80;99.90;;;;;;5024362;28;20026;-84
2022/08/10 09:07:07;;;;;;;0.85;0.30;;;25.80;99.90;;;;;;5024338;28;20044;-83
2022/08/10 09:09:58;;;;;;;1.33;0.30;;;26.10;99.90;;;;;;5028747;28;20143;-84
2022/08/10 09:13:02;;;;;;;0.50;0.20;;;26.40;99.90;;;;;;5054030;28;20022;-85
2022/08/10 09:15:37;;;;;;;2.67;0.35;;;26.90;99.90;;;;;;5057933;28;20033;-84
2022/08/10 09:18:12;;;;;;;1.05;0.30;;;26.30;99.90;;;;;;5039926;28;20025;-85
2022/08/10 09:20:48;;;;;;;2.15;0.30;;;26.80;99.90;;;;;;5043189;28;20139;-84
2022/08/10 09:23:19;;;;;;;2.20;0.32;;;26.90;99.90;;;;;;5049738;28;20148;-85
2022/08/10 09:25:53;;;;;;;1.45;0.30;;;26.40;99.90;;;;;;5035855;28;20021;-84
2022/08/10 09:28:30;;;;;;;2.15;0.30;;;26.50;99.90;;;;;;5027427;28;20037;-83
2022/08/10 09:31:05;;;;;;;1.27;0.20;;;26.90;99.90;;;;;;5027761;28;20025;-84
2022/08/10 09:33:37;;;;;;;0.85;0.20;;;27.30;99.90;;;;;;5038810;28;20034;-84
2022/08/10 09:36:35;;;;;;;1.58;0.30;;;27.40;99.90;;;;;;5041637;28;20037;-83
2022/08/10 09:39:11;;;;;;;0.65;0.20;;;27.40;99.90;;;;;;5041223;28;20091;-84
2022/08/10 09:41:50;;;;;;;1.70;0.30;;;27.90;99.90;;;;;;5046173;28;20078;-84
2022/08/10 09:44:33;;;;;;;0.82;0.17;;;27.90;99.90;;;;;;5055187;28;20103;-84
2022/08/10 09:47:11;;;;;;;0.30;0.20;;;27.90;99.90;;;;;;5055676;28;20045;-82
2022/08/10 09:49:57;;;;;;;1.48;0.20;;;27.70;99.90;;;;;;5036862;28;20026;-84
2022/08/10 09:53:00;;;;;;;0.45;0.20;;;28.00;99.90;;;;;;5037458;28;20111;-84
2022/08/10 09:55:38;;;;;;;0.60;0.20;;;28.10;99.90;;;;;;5040733;28;20469;-84
2022/08/10 09:58:30;;;;;;;1.13;0.20;;;28.30;99.90;;;;;;5038724;28;20489;-84
2022/08/10 10:01:12;;;;;;;0.55;0.20;;;28.10;99.90;;;;;;5040008;28;20028;-84
2022/08/10 10:03:54;;;;;;;1.67;0.30;;;28.60;99.90;;;;;;5029799;28;20047;-83
2022/08/10 10:06:42;;;;;;;0.93;0.20;;;28.40;99.90;;;;;;5041816;28;20029;-84
2022/08/10 10:09:22;;;;;;;0.80;0.30;;;28.30;99.90;;;;;;5051929;28;20033;-84
2022/08/10 10:12:06;;;;;;;;;;;28.70;99.90;;;;;;5035837;28;20037;-82
2022/08/10 10:18:18;;;;;;;1.05;0.15;;;28.90;99.90;;;;;;5036816;28;20499;-83
2022/08/10 10:21:23;;;;;;;1.20;0.20;;;29.20;99.90;;;;;;5040248;28;20447;-83
2022/08/10 10:24:23;;;;;;;1.17;0.10;;;29.40;99.90;;;;;;5040821;28;20441;-84
2022/08/10 10:27:27;;;;;;;1.10;0.20;;;29.40;99.90;;;;;;5037616;28;20052;-85
2022/08/10 10:30:14;;;;;;;0.47;0.20;;;29.20;99.90;;;;;;5034995;28;20025;-84
2022/08/10 10:33:27;;;;;;;2.55;0.20;;;29.30;99.90;;;;;;5033581;28;20079;-85
2022/08/10 10:35:54;;;;;;;0.40;0.20;;;29.30;99.90;;;;;;4984923;28;20045;-85
2022/08/10 10:38:31;;;;;;;0.93;0.20;;;29.40;99.90;;;;;;5038492;28;20029;-85
2022/08/10 10:41:25;;;;;;;0.90;0.20;;;29.20;99.90;;;;;;5036990;28;20521;-85
2022/08/10 10:44:22;;;;;;;1.65;0.15;;;29.50;99.90;;;;;;5035033;28;20048;-84
2022/08/10 10:47:14;;;;;;;0.63;0.10;;;29.80;99.90;;;;;;5051713;28;20022;-85
2022/08/10 10:49:53;;;;;;;1.52;0.20;;;29.70;99.90;;;;;;5040303;28;20033;-85
2022/08/10 10:52:38;;;;;;;0.60;0.10;;;29.90;99.90;;;;;;5054268;28;20391;-85
2022/08/10 10:55:09;;;;;;;0.70;0.10;;;29.90;99.90;;;;;;5037787;28;20053;-85
2022/08/10 10:57:44;;;;;;;2.50;0.20;;;30.40;99.90;;;;;;5027021;28;20520;-85
2022/08/10 11:00:11;;;;;;;0.73;0.20;;;30.60;99.90;;;;;;5039564;28;20017;-85
2022/08/10 11:03:13;;;;;;;0.47;0.20;;;29.80;99.90;;;;;;5040824;28;20036;-83
2022/08/10 11:06:16;;;;;;;0.88;0.10;;;29.90;99.90;;;;;;5038341;28;20057;-80
2022/08/10 11:08:47;;;;;;;0.52;0.10;;;30.50;99.90;;;;;;5036007;28;20036;-88
2022/08/10 11:11:19;;;;;;;0.40;0.13;;;30.40;99.90;;;;;;5036945;28;20024;-86
2022/08/10 11:14:12;;;;;;;0.85;0.10;;;30.60;99.90;;;;;;5020693;28;20029;-86
2022/08/10 11:16:50;;;;;;;0.30;0.10;;;30.60;99.90;;;;;;5028714;28;20091;-85
2022/08/10 11:19:27;;;;;;;1.55;0.10;;;31.20;99.90;;;;;;5041311;28;20120;-86
2022/08/10 11:22:18;;;;;;;0.50;0.10;;;31.60;99.90;;;;;;5024906;28;20032;-83
2022/08/10 11:25:05;;;;;;;1.17;0.10;;;31.60;99.90;;;;;;5035338;28;20084;-84
2022/08/10 11:27:56;;;;;;;0.10;0.08;;;31.20;99.90;;;;;;5036404;28;20040;-85
2022/08/10 11:30:29;;;;;;;0.20;0.10;;;30.90;99.70;;;;;;5039009;28;20057;-87
2022/08/10 11:33:09;;;;;;;1.02;0.10;;;30.90;99.60;;;;;;5043996;28;20497;-85
2022/08/10 11:35:49;;;;;;;0.80;0.10;;;30.90;99.90;;;;;;5053927;28;20155;-84
2022/08/10 11:38:34;;;;;;;0.40;0.10;;;30.80;99.40;;;;;;5040425;28;20068;-83
2022/08/10 11:41:28;;;;;;;0.28;0.10;;;31.10;99.40;;;;;;5040981;28;20040;-85
2022/08/10 11:44:11;;;;;;;0.40;0.08;;;31.10;99.30;;;;;;5042672;28;20029;-85
2022/08/10 11:46:55;;;;;;;0.10;0.00;;;31.50;99.70;;;;;;5039599;28;20021;-84
2022/08/10 11:49:36;;;;;;;0.22;0.08;;;31.50;99.00;;;;;;5025721;28;20061;-83
2022/08/10 11:52:14;;;;;;;0.63;0.10;;;31.20;98.60;;;;;;5052311;28;20156;-82
2022/08/10 11:54:50;;;;;;;1.20;0.10;;;30.80;99.40;;;;;;5041297;28;20569;-81
2022/08/10 11:57:16;;;;;;;0.38;0.10;;;31.20;98.70;;;;;;5037495;28;20029;-85
2022/08/10 11:59:57;;;;;;;0.25;0.10;;;30.90;98.60;;;;;;5034429;28;20025;-82
2022/08/10 12:02:28;;;;;;;0.65;0.10;;;30.80;98.40;;;;;;5037370;28;20062;-84
2022/08/10 12:05:10;;;;;;;0.38;0.10;;;31.00;98.80;;;;;;5033808;28;20037;-84
2022/08/10 12:07:41;;;;;;;0.70;0.10;;;31.00;98.60;;;;;;5028046;28;20412;-85
2022/08/10 12:10:07;;;;;;;0.68;0.10;;;31.30;99.00;;;;;;5054392;28;20029;-86
2022/08/10 12:12:41;;;;;;;0.40;0.10;;;31.60;99.00;;;;;;5027155;28;20049;-85
2022/08/10 12:15:15;;;;;;;1.13;0.10;;;31.20;98.40;;;;;;5026440;28;20017;-87
2022/08/10 12:17:54;;;;;;;0.32;0.10;;;31.00;97.80;;;;;;5037508;28;20041;-86
2022/08/10 12:20:36;;;;;;;1.63;0.10;;;31.00;98.10;;;;;;5039770;28;20485;-85
2022/08/10 12:23:26;;;;;;;0.40;0.10;;;30.90;97.80;;;;;;5025690;28;20083;-85
2022/08/10 12:26:08;;;;;;;0.47;0.10;;;31.30;98.60;;;;;;5041994;28;20040;-86
2022/08/10 12:29:02;;;;;;;1.10;0.10;;;31.70;98.50;;;;;;5043945;28;20045;-84
2022/08/10 12:31:54;;;;;;;0.80;0.10;;;31.50;97.70;;;;;;5025529;28;20116;-87
2022/08/10 12:34:42;;;;;;;1.50;0.38;;;31.50;97.60;;;;;;5022308;28;20401;-84
2022/08/10 12:37:10;;;;;;;0.30;0.10;;;31.30;97.40;;;;;;5023674;28;20043;-83
2022/08/10 12:40:01;;;;;;;0.40;0.10;;;31.60;97.60;;;;;;5039551;28;20102;-85
2022/08/10 12:42:44;;;;;;;0.30;0.10;;;31.50;99.00;;;;;;5044199;28;20025;-85
2022/08/10 12:45:25;;;;;;;1.25;0.20;;;31.80;97.80;;;;;;5056717;28;20029;-84
2022/08/10 12:48:06;;;;;;;1.20;0.10;;;31.60;98.20;;;;;;5039643;28;20046;-86
2022/08/10 12:50:45;;;;;;;0.50;0.10;;;31.60;98.40;;;;;;5038303;28;20031;-84
2022/08/10 12:53:26;;;;;;;0.70;0.10;;;31.60;97.10;;;;;;5040651;28;20029;-83
2022/08/10 12:55:52;;;;;;;0.75;0.13;;;31.30;97.70;;;;;;5034459;28;20034;-84
2022/08/10 12:58:19;;;;;;;0.57;0.10;;;31.20;97.60;;;;;;5040403;28;20047;-83
2022/08/10 13:00:48;;;;;;;0.13;0.10;;;31.30;97.70;;;;;;5039978;28;20029;-84
2022/08/10 13:03:14;;;;;;;0.30;0.10;;;31.00;96.40;;;;;;5036819;28;20037;-86
2022/08/10 13:05:42;;;;;;;0.20;0.10;;;30.80;96.20;;;;;;5020661;28;20036;-86
2022/08/10 13:11:02;;;;;;;0.20;0.10;;;30.70;97.00;;;;;;5033684;28;20029;-81
2022/08/10 13:13:32;;;;;;;0.50;0.10;;;30.90;96.70;;;;;;5032457;28;20056;-84
2022/08/10 13:15:59;;;;;;;0.60;0.20;;;30.70;96.30;;;;;;5036288;28;20026;-84
2022/08/10 13:18:30;;;;;;;0.52;0.10;;;30.20;96.60;;;;;;5038448;28;20072;-86
2022/08/10 13:21:03;;;;;;;0.45;0.10;;;30.60;96.60;;;;;;5025843;28;20025;-82
2022/08/10 13:23:33;;;;;;;0.43;0.10;;;31.10;97.10;;;;;;5027679;28;20033;-84
2022/08/10 13:26:00;;;;;;;0.47;0.10;;;31.10;96.70;;;;;;5017388;28;20504;-84